Time;durP1;ratioP1;P1;durP2;ratioP2;P2;SDS_P1;SDS_P2;PMS_P1;PMS_P2;Temp;Humidity;BMP_temperature;BMP_pressure;BME280_temperature;BME280_humidity;BME280_pressure;Samples;Min_cycle;Max_cycle;Signal;HPM_P1;HPM_P2
2021/07/08 00:01:51;;;;;;;7.97;4.82;;;;;;;26.04;52.48;100450.84;5038662;28;20029;-75
2021/07/08 00:04:16;;;;;;;12.00;5.43;;;;;;;26.02;52.22;100459.22;5035833;28;20025;-73
2021/07/08 00:06:42;;;;;;;9.95;5.55;;;;;;;26.01;52.49;100456.81;5029960;28;20101;-73
2021/07/08 00:09:08;;;;;;;5.70;5.13;;;;;;;25.97;52.55;100454.16;5038124;28;20104;-73
2021/07/08 00:11:34;;;;;;;7.13;5.38;;;;;;;25.92;52.58;100454.91;5028022;28;20021;-73
2021/07/08 00:14:00;;;;;;;7.60;5.82;;;;;;;25.88;52.88;100465.88;5033665;28;20020;-75
2021/07/08 00:16:27;;;;;;;14.50;5.63;;;;;;;25.83;53.51;100464.50;5038131;28;20033;-74
2021/07/08 00:18:53;;;;;;;9.55;5.72;;;;;;;25.77;54.89;100457.91;5020082;28;20421;-72
2021/07/08 00:21:20;;;;;;;8.13;4.93;;;;;;;25.71;53.85;100462.00;5037855;28;20037;-71
2021/07/08 00:23:46;;;;;;;6.60;5.03;;;;;;;25.67;54.29;100458.56;5036175;28;20019;-72
2021/07/08 00:26:11;;;;;;;12.85;5.90;;;;;;;25.62;54.00;100462.13;5038082;28;20413;-72
2021/07/08 00:28:36;;;;;;;14.18;6.72;;;;;;;25.57;53.67;100452.94;5020560;28;20030;-72
2021/07/08 00:31:02;;;;;;;12.77;6.30;;;;;;;25.55;53.65;100455.53;5037630;28;20029;-71
2021/07/08 00:33:27;;;;;;;9.68;6.18;;;;;;;25.52;53.78;100465.19;5037963;28;20029;-70
2021/07/08 00:35:53;;;;;;;9.73;6.03;;;;;;;25.49;53.81;100462.53;5020202;28;20056;-74
2021/07/08 00:38:18;;;;;;;13.25;6.45;;;;;;;25.47;53.44;100462.22;5038047;28;20112;-73
2021/07/08 00:40:44;;;;;;;18.67;6.80;;;;;;;25.45;54.44;100456.97;5037455;28;20027;-71
2021/07/08 00:43:09;;;;;;;11.30;7.13;;;;;;;25.42;55.00;100457.97;5038011;28;20017;-72
2021/07/08 00:45:35;;;;;;;15.10;7.25;;;;;;;25.36;54.94;100460.00;5037702;28;20018;-74
2021/07/08 00:48:00;;;;;;;12.13;6.40;;;;;;;25.32;55.51;100456.56;5037504;28;20036;-75
2021/07/08 00:50:30;;;;;;;11.88;6.65;;;;;;;25.25;54.74;100457.78;5037400;28;20033;-74
2021/07/08 00:52:56;;;;;;;11.18;6.40;;;;;;;25.23;55.18;100450.94;5037508;28;20071;-74
2021/07/08 00:55:21;;;;;;;10.45;6.88;;;;;;;25.17;55.68;100465.25;5037372;28;20046;-76
2021/07/08 00:57:53;;;;;;;16.50;6.22;;;;;;;25.13;54.82;100455.25;5019784;28;20029;-76
2021/07/08 01:00:24;;;;;;;13.13;6.55;;;;;;;25.11;55.27;100464.38;5037666;28;20086;-73
2021/07/08 01:02:50;;;;;;;11.75;7.05;;;;;;;25.08;55.15;100459.63;5037315;28;20429;-74
2021/07/08 01:05:20;;;;;;;10.48;7.13;;;;;;;25.07;55.27;100463.00;5037070;28;20029;-75
2021/07/08 01:07:46;;;;;;;12.75;6.65;;;;;;;25.04;55.47;100453.31;5037291;28;20148;-73
2021/07/08 01:10:14;;;;;;;14.45;7.38;;;;;;;25.01;54.76;100454.31;5019620;28;20027;-75
2021/07/08 01:12:40;;;;;;;10.73;6.38;;;;;;;24.98;55.10;100457.38;5017980;28;20030;-74
2021/07/08 01:15:07;;;;;;;12.60;6.78;;;;;;;24.95;56.23;100465.72;5037348;28;20079;-74
2021/07/08 01:17:32;;;;;;;19.88;6.38;;;;;;;24.90;55.25;100466.41;5037027;28;20108;-73
2021/07/08 01:19:58;;;;;;;13.23;6.82;;;;;;;24.87;55.32;100463.75;5036757;28;20100;-74
2021/07/08 01:22:23;;;;;;;14.50;7.10;;;;;;;24.85;55.37;100472.88;5037149;28;20025;-73
2021/07/08 01:24:49;;;;;;;12.27;6.68;;;;;;;24.81;56.09;100457.91;5036383;28;20393;-74
2021/07/08 01:27:15;;;;;;;16.52;6.63;;;;;;;24.79;55.44;100463.38;5036865;28;20313;-73
2021/07/08 01:29:41;;;;;;;12.80;6.22;;;;;;;24.76;55.87;100470.13;5036785;28;20685;-75
2021/07/08 01:32:06;;;;;;;14.40;6.75;;;;;;;24.73;56.34;100465.38;5036605;28;20052;-75
2021/07/08 01:34:32;;;;;;;12.75;6.28;;;;;;;24.70;55.90;100460.63;5036741;28;20044;-75
2021/07/08 01:36:58;;;;;;;11.50;6.00;;;;;;;24.68;55.75;100463.22;5019147;28;20495;-75
2021/07/08 01:39:24;;;;;;;10.05;5.82;;;;;;;24.67;55.38;100466.59;5035801;28;20320;-73
2021/07/08 01:41:49;;;;;;;11.02;5.97;;;;;;;24.68;55.35;100459.56;5036567;28;20029;-74
2021/07/08 01:44:15;;;;;;;11.40;6.07;;;;;;;24.69;55.35;100464.81;5036665;28;20397;-74
2021/07/08 01:46:41;;;;;;;9.13;5.82;;;;;;;24.73;55.16;100458.84;5018980;28;20037;-75
2021/07/08 01:49:06;;;;;;;12.13;6.22;;;;;;;24.71;56.11;100462.22;5036209;28;20025;-76
2021/07/08 01:51:34;;;;;;;13.85;6.97;;;;;;;24.68;56.10;100462.44;5036549;28;20036;-74
2021/07/08 01:54:02;;;;;;;11.20;6.57;;;;;;;24.63;56.25;100458.16;5016840;28;20049;-75
2021/07/08 01:56:27;;;;;;;12.98;7.40;;;;;;;24.60;56.20;100450.53;5036266;28;20042;-75
2021/07/08 01:58:53;;;;;;;10.88;6.32;;;;;;;24.57;55.62;100452.31;5036365;28;20127;-72
2021/07/08 02:01:22;;;;;;;11.98;6.32;;;;;;;24.55;55.50;100451.25;5036636;28;20064;-73
2021/07/08 02:03:48;;;;;;;12.00;6.22;;;;;;;24.50;56.20;100446.19;5035957;28;20021;-71
2021/07/08 02:06:14;;;;;;;10.35;6.03;;;;;;;24.46;57.35;100459.97;5018649;28;20020;-73
2021/07/08 02:08:40;;;;;;;9.63;6.55;;;;;;;24.41;56.62;100454.94;5036322;28;20025;-75
2021/07/08 02:11:06;;;;;;;11.50;5.88;;;;;;;24.40;56.18;100450.50;5018345;28;20045;-74
2021/07/08 02:13:34;;;;;;;10.07;6.25;;;;;;;24.37;55.60;100460.88;5036195;28;20048;-76
2021/07/08 02:16:00;;;;;;;8.30;6.00;;;;;;;24.35;56.22;100455.63;5035793;28;20032;-75
2021/07/08 02:18:26;;;;;;;11.88;5.88;;;;;;;24.31;56.74;100449.28;5018255;28;20325;-72
2021/07/08 02:20:51;;;;;;;8.57;5.70;;;;;;;24.27;56.74;100451.53;5018454;28;20120;-74
2021/07/08 02:23:17;;;;;;;9.80;5.95;;;;;;;24.25;57.14;100451.25;5018229;28;20017;-73
2021/07/08 02:25:43;;;;;;;8.07;6.35;;;;;;;24.24;57.18;100458.28;5036006;28;20325;-73
2021/07/08 02:28:09;;;;;;;12.27;6.38;;;;;;;24.21;56.98;100450.66;5035834;28;20120;-75
2021/07/08 02:30:34;;;;;;;12.63;5.75;;;;;;;24.18;56.66;100460.28;5035948;28;20409;-74
2021/07/08 02:32:59;;;;;;;10.98;5.90;;;;;;;24.15;56.89;100461.28;5035320;28;20029;-75
2021/07/08 02:35:27;;;;;;;8.45;5.78;;;;;;;24.12;57.05;100462.25;5035297;28;20537;-78
2021/07/08 02:37:53;;;;;;;16.52;6.35;;;;;;;24.09;56.78;100457.47;5035765;28;20444;-75
2021/07/08 02:40:24;;;;;;;7.60;5.80;;;;;;;24.06;56.52;100458.47;5035160;28;20480;-77
2021/07/08 02:42:52;;;;;;;13.38;5.63;;;;;;;24.06;56.46;100452.72;5017710;28;20032;-77
2021/07/08 02:45:26;;;;;;;9.38;6.88;;;;;;;24.04;56.78;100461.06;5035115;28;20028;-75
2021/07/08 02:47:52;;;;;;;11.70;6.47;;;;;;;24.02;56.49;100470.16;5035088;28;20030;-77
2021/07/08 02:50:20;;;;;;;8.57;5.93;;;;;;;24.00;56.76;100461.25;5034863;28;20028;-74
2021/07/08 02:52:46;;;;;;;10.10;5.82;;;;;;;23.98;57.66;100465.91;5035512;28;20044;-74
2021/07/08 02:55:12;;;;;;;10.90;6.30;;;;;;;23.95;57.58;100469.78;5019649;28;20042;-73
2021/07/08 02:57:39;;;;;;;11.75;7.18;;;;;;;23.93;57.01;100473.13;5017979;28;20564;-76
2021/07/08 03:00:07;;;;;;;11.60;5.80;;;;;;;23.92;57.38;100467.88;5035207;28;20029;-76
2021/07/08 03:02:32;;;;;;;12.90;6.18;;;;;;;23.90;57.23;100468.38;5035019;28;20075;-76
2021/07/08 03:04:57;;;;;;;8.32;5.93;;;;;;;23.88;57.49;100470.97;5017450;28;20017;-73
2021/07/08 03:07:23;;;;;;;9.80;6.03;;;;;;;23.87;57.37;100477.97;5034769;28;20021;-72
2021/07/08 03:09:48;;;;;;;15.93;7.57;;;;;;;23.86;57.00;100476.41;5035389;28;20117;-74
2021/07/08 03:12:13;;;;;;;11.90;6.53;;;;;;;23.89;56.92;100477.50;5034964;28;20116;-76
2021/07/08 03:14:39;;;;;;;13.43;7.07;;;;;;;23.88;57.35;100481.66;5017874;28;20026;-72
2021/07/08 03:17:04;;;;;;;12.60;6.50;;;;;;;23.87;58.10;100485.81;5034872;28;20108;-71
2021/07/08 03:19:29;;;;;;;17.55;6.93;;;;;;;23.85;57.71;100491.25;5034942;28;20032;-72
2021/07/08 03:21:55;;;;;;;12.55;6.45;;;;;;;23.82;57.74;100483.59;5035415;28;20033;-73
2021/07/08 03:24:20;;;;;;;12.23;6.78;;;;;;;23.81;57.54;100484.88;5017511;28;20060;-71
2021/07/08 03:26:45;;;;;;;7.85;6.35;;;;;;;23.82;57.81;100483.59;5034926;28;20056;-75
2021/07/08 03:29:11;;;;;;;13.88;6.35;;;;;;;23.80;57.94;100484.09;5034637;28;20036;-77
2021/07/08 03:31:36;;;;;;;17.60;7.32;;;;;;;23.79;57.79;100490.31;5035174;28;20030;-73
2021/07/08 03:34:02;;;;;;;10.77;6.38;;;;;;;23.80;57.96;100481.22;5034947;28;20017;-72
2021/07/08 03:36:27;;;;;;;14.27;7.07;;;;;;;23.81;58.62;100488.53;5016734;28;20306;-71
2021/07/08 03:38:52;;;;;;;10.40;6.85;;;;;;;23.79;58.44;100484.59;5021656;28;20025;-74
2021/07/08 03:41:18;;;;;;;12.20;6.88;;;;;;;23.79;58.64;100484.59;5034693;28;20036;-76
2021/07/08 03:43:43;;;;;;;12.63;6.97;;;;;;;23.81;58.49;100485.66;5016944;28;20077;-75
2021/07/08 03:46:09;;;;;;;15.25;6.28;;;;;;;23.86;58.40;100484.22;5034881;28;20032;-76
2021/07/08 03:48:34;;;;;;;10.98;6.57;;;;;;;23.88;58.16;100493.13;5034175;28;20470;-75
2021/07/08 03:50:59;;;;;;;11.75;6.60;;;;;;;23.87;58.51;100494.41;5017092;28;20025;-74
2021/07/08 03:53:25;;;;;;;7.82;6.68;;;;;;;23.91;58.39;100503.63;5017158;28;20037;-73
2021/07/08 03:55:50;;;;;;;11.00;6.28;;;;;;;23.91;58.81;100507.28;5037508;28;20049;-75
2021/07/08 03:58:16;;;;;;;9.77;6.90;;;;;;;23.94;59.33;100494.03;5020546;28;20455;-73
2021/07/08 04:00:42;;;;;;;13.02;7.55;;;;;;;23.95;58.59;100493.53;5038372;28;20025;-72
2021/07/08 04:03:16;;;;;;;14.23;6.97;;;;;;;23.99;58.51;100502.72;5038423;28;20033;-71
2021/07/08 04:05:43;;;;;;;17.98;7.28;;;;;;;24.02;58.53;100492.34;5038349;28;20363;-72
2021/07/08 04:08:09;;;;;;;9.02;6.80;;;;;;;24.07;59.00;100493.72;5038257;28;20052;-73
2021/07/08 04:10:37;;;;;;;13.35;7.05;;;;;;;24.10;59.08;100496.41;5020910;28;20029;-71
2021/07/08 04:13:07;;;;;;;20.45;7.20;;;;;;;24.15;58.19;100507.22;5037645;28;20021;-73
2021/07/08 04:15:33;;;;;;;22.52;7.00;;;;;;;24.23;58.09;100514.13;5038371;28;20047;-73
2021/07/08 04:18:00;;;;;;;11.50;6.65;;;;;;;24.32;57.58;100508.31;5038115;28;20128;-78
2021/07/08 04:20:26;;;;;;;18.92;6.50;;;;;;;24.42;57.34;100513.97;5038249;28;20376;-71
2021/07/08 04:22:52;;;;;;;11.88;6.35;;;;;;;24.51;57.12;100511.00;5037903;28;20080;-70
2021/07/08 04:25:18;;;;;;;10.68;6.32;;;;;;;24.59;57.17;100506.41;5038187;28;20029;-71
2021/07/08 04:27:45;;;;;;;10.93;6.10;;;;;;;24.66;57.10;100508.91;5038043;28;20071;-74
2021/07/08 04:30:12;;;;;;;9.25;6.25;;;;;;;24.73;56.61;100516.31;5037090;28;20053;-70
2021/07/08 04:32:38;;;;;;;11.40;6.47;;;;;;;24.79;56.67;100523.75;5038023;28;20104;-71
2021/07/08 04:35:04;;;;;;;9.10;6.28;;;;;;;24.84;56.73;100517.28;5018668;28;20113;-73
2021/07/08 04:37:30;;;;;;;9.27;6.03;;;;;;;24.90;56.08;100515.28;5034873;28;20049;-72
2021/07/08 04:39:56;;;;;;;10.18;6.28;;;;;;;25.00;56.76;100518.88;5036901;28;20104;-72
2021/07/08 04:42:21;;;;;;;8.02;5.70;;;;;;;25.07;56.06;100511.91;5036936;28;20028;-74
2021/07/08 04:44:47;;;;;;;13.25;6.68;;;;;;;25.15;55.75;100510.97;5037177;28;20022;-69
2021/07/08 04:47:14;;;;;;;13.60;5.70;;;;;;;25.24;55.50;100513.72;5036558;28;20317;-74
2021/07/08 04:49:40;;;;;;;11.05;5.82;;;;;;;25.34;56.10;100510.72;5036217;28;20075;-71
2021/07/08 04:52:06;;;;;;;11.38;6.28;;;;;;;25.42;55.27;100512.66;5036087;28;20036;-71
2021/07/08 04:54:32;;;;;;;13.05;5.75;;;;;;;25.50;55.51;100515.91;5034892;28;20309;-74
2021/07/08 04:56:57;;;;;;;7.05;5.28;;;;;;;25.56;55.10;100508.91;5018648;28;20037;-75
2021/07/08 04:59:23;;;;;;;8.30;6.30;;;;;;;25.64;55.34;100508.47;5030480;28;20032;-75
2021/07/08 05:01:48;;;;;;;8.40;5.88;;;;;;;25.72;54.69;100516.19;5036135;28;20083;-75
2021/07/08 05:04:13;;;;;;;11.20;6.00;;;;;;;25.79;54.19;100514.97;5037193;28;20017;-77
2021/07/08 05:06:39;;;;;;;6.10;5.45;;;;;;;25.86;54.12;100514.53;5035811;28;20514;-75
2021/07/08 05:09:04;;;;;;;7.00;5.40;;;;;;;25.93;53.97;100513.28;5036915;28;20048;-76
2021/07/08 05:11:30;;;;;;;6.93;5.15;;;;;;;26.00;54.32;100519.38;5037096;28;20148;-76
2021/07/08 05:13:55;;;;;;;7.47;5.90;;;;;;;26.10;53.74;100514.28;5037092;28;20025;-77
2021/07/08 05:16:20;;;;;;;6.43;5.65;;;;;;;26.17;53.36;100523.25;5036947;28;20029;-76
2021/07/08 05:18:46;;;;;;;8.27;5.80;;;;;;;26.24;53.82;100521.19;5037152;28;20036;-76
2021/07/08 05:21:11;;;;;;;8.37;5.50;;;;;;;26.31;53.66;100524.44;5036986;28;20282;-76
2021/07/08 05:23:38;;;;;;;8.57;5.97;;;;;;;26.41;53.57;100525.06;5037014;28;20266;-76
2021/07/08 05:26:04;;;;;;;9.68;5.38;;;;;;;26.47;52.45;100534.56;5033702;28;20025;-76
2021/07/08 05:28:31;;;;;;;12.48;5.95;;;;;;;26.55;53.03;100532.78;5037050;28;20031;-77
2021/07/08 05:30:56;;;;;;;8.02;6.13;;;;;;;26.61;52.99;100529.97;5036778;28;20033;-76
2021/07/08 05:33:21;;;;;;;9.52;5.82;;;;;;;26.68;53.02;100538.94;5019113;28;20014;-77
2021/07/08 05:35:47;;;;;;;9.90;5.82;;;;;;;26.74;52.72;100536.88;5036880;28;20369;-77
2021/07/08 05:38:12;;;;;;;11.50;5.97;;;;;;;26.82;52.25;100536.41;5019111;28;20036;-77
2021/07/08 05:40:37;;;;;;;6.25;5.40;;;;;;;26.92;52.79;100546.47;5036444;28;20021;-76
2021/07/08 05:43:04;;;;;;;10.52;5.47;;;;;;;26.99;52.62;100543.94;5019231;28;20025;-76
2021/07/08 05:45:29;;;;;;;10.32;5.85;;;;;;;27.06;52.66;100557.06;5036560;28;20033;-76
2021/07/08 05:47:55;;;;;;;8.18;5.35;;;;;;;27.18;52.63;100558.75;5019011;28;20413;-77
2021/07/08 05:50:20;;;;;;;8.27;5.82;;;;;;;27.27;51.96;100549.88;5018744;28;20160;-75
2021/07/08 05:52:47;;;;;;;9.20;5.63;;;;;;;27.38;52.60;100555.69;5036674;28;20057;-76
2021/07/08 05:55:12;;;;;;;6.88;5.45;;;;;;;27.50;51.86;100562.34;5033565;28;20041;-76
2021/07/08 05:57:46;;;;;;;8.02;5.65;;;;;;;27.57;52.10;100561.06;5036515;28;20083;-77
2021/07/08 06:00:12;;;;;;;8.32;5.97;;;;;;;27.65;52.09;100573.72;5036467;28;20025;-76
2021/07/08 06:02:37;;;;;;;8.50;6.00;;;;;;;27.73;51.47;100560.38;5036149;28;20033;-76
2021/07/08 06:05:03;;;;;;;6.55;5.13;;;;;;;27.86;50.58;100565.69;5018692;28;20014;-76
2021/07/08 06:07:29;;;;;;;8.45;5.10;;;;;;;27.97;51.55;100557.84;5018682;28;20029;-76
2021/07/08 06:09:54;;;;;;;9.45;5.35;;;;;;;28.08;50.40;100554.19;5036049;28;20029;-76
2021/07/08 06:12:22;;;;;;;7.68;5.15;;;;;;;28.18;50.53;100557.63;5035866;28;20021;-76
2021/07/08 06:14:47;;;;;;;6.25;4.93;;;;;;;28.27;48.21;100555.34;5018616;28;20022;-77
2021/07/08 06:17:12;;;;;;;12.48;5.18;;;;;;;28.34;48.23;100565.59;5035463;28;20025;-76
2021/07/08 06:19:38;;;;;;;10.02;4.78;;;;;;;28.40;48.22;100554.81;5035860;28;20037;-77
2021/07/08 06:22:03;;;;;;;8.02;4.45;;;;;;;28.50;48.75;100561.16;5018458;28;20026;-76
2021/07/08 06:24:29;;;;;;;9.85;5.15;;;;;;;28.60;47.97;100563.25;5018128;28;20028;-77
2021/07/08 06:26:54;;;;;;;7.85;4.65;;;;;;;28.69;48.16;100567.19;5035901;28;20033;-77
2021/07/08 06:29:19;;;;;;;5.40;4.90;;;;;;;28.81;47.60;100563.00;5018116;28;20025;-77
2021/07/08 06:31:45;;;;;;;8.30;4.77;;;;;;;28.90;47.17;100566.44;5035808;28;20029;-76
2021/07/08 06:34:10;;;;;;;6.67;5.00;;;;;;;29.00;46.88;100564.06;5035610;28;20591;-77
2021/07/08 06:36:36;;;;;;;11.45;4.75;;;;;;;29.10;47.11;100561.69;5035661;28;20286;-77
2021/07/08 06:39:04;;;;;;;7.95;5.05;;;;;;;29.19;46.90;100556.41;5035523;28;20029;-77
2021/07/08 06:41:29;;;;;;;8.05;4.70;;;;;;;29.33;44.81;100563.25;5035716;28;20473;-77
2021/07/08 06:43:54;;;;;;;13.73;4.80;;;;;;;29.42;44.53;100565.03;5035407;28;20108;-77
2021/07/08 06:46:27;;;;;;;7.97;4.35;;;;;;;29.51;42.59;100565.56;5018045;28;20511;-74
2021/07/08 06:48:52;;;;;;;11.00;4.57;;;;;;;29.62;41.13;100561.88;5035533;28;20032;-76
2021/07/08 06:51:18;;;;;;;12.10;4.73;;;;;;;29.69;41.68;100572.09;5035436;28;20029;-77
2021/07/08 06:53:43;;;;;;;8.07;3.67;;;;;;;29.75;40.93;100573.66;5035468;28;20275;-76
2021/07/08 06:56:09;;;;;;;12.45;4.82;;;;;;;29.80;40.12;100572.84;5017763;28;20045;-76
2021/07/08 06:58:35;;;;;;;9.65;4.18;;;;;;;29.90;39.98;100570.44;5035590;28;20026;-77
2021/07/08 07:01:00;;;;;;;8.23;4.22;;;;;;;29.94;40.27;100570.94;5035605;28;20033;-77
2021/07/08 07:03:26;;;;;;;5.90;4.45;;;;;;;30.01;39.70;100575.38;5035460;28;20079;-77
2021/07/08 07:05:52;;;;;;;9.15;4.50;;;;;;;30.07;40.35;100574.06;5035237;28;20025;-77
2021/07/08 07:08:17;;;;;;;5.93;4.20;;;;;;;30.17;40.32;100583.25;5035112;28;20022;-77
2021/07/08 07:10:42;;;;;;;6.90;3.85;;;;;;;30.28;39.88;100577.38;5035220;28;20028;-77
2021/07/08 07:13:12;;;;;;;4.57;4.13;;;;;;;30.34;39.15;100574.44;5034129;28;20025;-77
2021/07/08 07:15:41;;;;;;;8.55;4.28;;;;;;;30.44;39.70;100576.47;5035257;28;20601;-77
2021/07/08 07:18:07;;;;;;;8.13;4.00;;;;;;;30.52;38.86;100575.91;5017852;28;20365;-77
2021/07/08 07:20:32;;;;;;;7.47;3.60;;;;;;;30.61;38.62;100587.19;5017677;28;20025;-77
2021/07/08 07:22:58;;;;;;;5.13;3.70;;;;;;;30.68;38.48;100583.69;5035077;28;20025;-77
2021/07/08 07:25:25;;;;;;;6.85;4.13;;;;;;;30.73;38.56;100577.09;5035289;28;20370;-77
2021/07/08 07:27:52;;;;;;;6.00;3.83;;;;;;;30.82;37.00;100584.66;5034996;28;20105;-77
2021/07/08 07:30:23;;;;;;;4.97;3.30;;;;;;;30.90;36.44;100586.44;5039184;28;20436;-77
2021/07/08 07:32:49;;;;;;;3.72;3.22;;;;;;;30.96;36.62;100590.09;5021691;28;20037;-77
2021/07/08 07:35:15;;;;;;;4.38;3.72;;;;;;;30.97;36.90;100591.66;5038730;28;20096;-77
2021/07/08 07:37:41;;;;;;;6.18;3.45;;;;;;;31.06;36.38;100587.63;5039005;28;20108;-78
2021/07/08 07:40:07;;;;;;;4.40;3.30;;;;;;;31.11;36.13;100588.88;5038869;28;20362;-78
2021/07/08 07:42:34;;;;;;;5.43;3.60;;;;;;;31.14;36.67;100593.59;5038906;28;20116;-77
2021/07/08 07:45:00;;;;;;;7.55;3.92;;;;;;;31.16;36.70;100582.25;5038852;28;20113;-78
2021/07/08 07:47:27;;;;;;;6.05;3.83;;;;;;;31.22;36.60;100592.50;5038857;28;20104;-78
2021/07/08 07:49:53;;;;;;;6.63;4.05;;;;;;;31.29;37.82;100591.13;5039136;28;20034;-78
2021/07/08 07:52:18;;;;;;;5.05;3.70;;;;;;;31.32;36.20;100585.00;5038281;28;20129;-78
2021/07/08 07:54:43;;;;;;;7.15;3.72;;;;;;;31.42;36.01;100591.25;5021034;28;20065;-78
2021/07/08 07:57:09;;;;;;;4.53;3.80;;;;;;;31.52;36.57;100588.78;5038574;28;20038;-77
2021/07/08 07:59:38;;;;;;;6.40;3.20;;;;;;;31.62;35.96;100584.16;5038626;28;20087;-78
2021/07/08 08:02:10;;;;;;;7.03;3.90;;;;;;;31.72;36.52;100581.69;5020932;28;20137;-78
2021/07/08 08:04:41;;;;;;;9.50;3.15;;;;;;;31.78;35.54;100594.84;5021139;28;20317;-78
2021/07/08 08:09:52;;;;;;;5.95;3.85;;;;;;;31.88;35.75;100593.13;5038592;28;20044;-77
2021/07/08 08:12:18;;;;;;;4.47;3.67;;;;;;;31.90;34.92;100589.66;5020548;28;20405;-76
2021/07/08 08:14:43;;;;;;;4.13;3.47;;;;;;;31.94;35.43;100579.28;5038341;28;20329;-78
2021/07/08 08:17:08;;;;;;;6.05;3.15;;;;;;;32.02;35.35;100585.25;5020816;28;20037;-77
2021/07/08 08:19:34;;;;;;;7.78;4.10;;;;;;;32.13;34.69;100581.44;5037880;28;20025;-77
2021/07/08 08:21:59;;;;;;;4.15;3.20;;;;;;;32.22;34.56;100576.00;5038348;28;20033;-77
2021/07/08 08:24:25;;;;;;;5.80;3.40;;;;;;;32.34;33.64;100572.97;5037986;28;20020;-77
2021/07/08 08:26:53;;;;;;;6.40;3.40;;;;;;;32.45;35.35;100581.53;5038065;28;20107;-75
2021/07/08 08:29:20;;;;;;;3.75;3.38;;;;;;;32.52;33.86;100578.75;5020399;28;20144;-74
2021/07/08 08:31:45;;;;;;;6.15;3.20;;;;;;;32.61;33.32;100577.59;5038055;28;20049;-75
2021/07/08 08:34:10;;;;;;;8.98;3.60;;;;;;;32.67;33.73;100577.50;5037627;28;20095;-75
2021/07/08 08:36:37;;;;;;;5.77;3.70;;;;;;;32.71;34.04;100575.03;5037970;28;20057;-75
2021/07/08 08:39:03;;;;;;;8.80;3.80;;;;;;;32.72;33.95;100585.34;5038040;28;20258;-74
2021/07/08 08:41:28;;;;;;;6.18;3.17;;;;;;;32.76;33.22;100577.06;5019725;28;20029;-74
2021/07/08 08:43:54;;;;;;;8.73;3.50;;;;;;;32.79;34.25;100570.94;5020208;28;20028;-74
2021/07/08 08:46:20;;;;;;;4.07;3.42;;;;;;;32.83;34.08;100577.22;5036630;28;20029;-75
2021/07/08 08:48:45;;;;;;;6.57;3.28;;;;;;;32.92;33.57;100578.94;5037546;28;20325;-74
2021/07/08 08:51:11;;;;;;;6.03;3.93;;;;;;;33.01;34.09;100577.72;5037645;28;20029;-75
2021/07/08 08:53:36;;;;;;;4.43;3.55;;;;;;;33.08;33.69;100568.34;5037594;28;20278;-75
2021/07/08 08:56:02;;;;;;;5.30;3.45;;;;;;;33.14;33.25;100574.84;5037560;28;20381;-75
2021/07/08 08:58:27;;;;;;;5.55;3.47;;;;;;;33.22;33.48;100572.84;5019941;28;20407;-74
2021/07/08 09:00:57;;;;;;;3.77;3.47;;;;;;;33.23;33.96;100577.34;5019819;28;20024;-75
2021/07/08 09:03:25;;;;;;;4.72;3.58;;;;;;;33.28;34.23;100582.25;5037348;28;20678;-74
2021/07/08 09:05:58;;;;;;;8.35;3.92;;;;;;;33.31;33.20;100574.53;5019625;28;20032;-75
2021/07/08 09:08:24;;;;;;;5.88;3.80;;;;;;;33.40;33.50;100583.63;5037394;28;20029;-74
2021/07/08 09:11:02;;;;;;;6.07;3.50;;;;;;;33.48;32.63;100581.66;5016463;28;20046;-75
2021/07/08 09:13:44;;;;;;;6.00;3.95;;;;;;;33.53;32.88;100585.00;5028462;28;20029;-75
2021/07/08 09:16:13;;;;;;;4.03;3.40;;;;;;;33.58;33.14;100581.97;5037142;28;20021;-75
2021/07/08 09:18:39;;;;;;;7.75;3.53;;;;;;;33.61;31.83;100565.50;5037059;28;20108;-77
2021/07/08 09:21:20;;;;;;;5.28;3.30;;;;;;;33.65;32.20;100587.13;5037012;28;20017;-75
2021/07/08 09:24:07;;;;;;;4.95;3.40;;;;;;;33.68;33.22;100576.47;5037093;28;20026;-75
2021/07/08 09:26:33;;;;;;;3.63;3.17;;;;;;;33.71;32.41;100575.38;5019606;28;20021;-76
2021/07/08 09:29:18;;;;;;;4.72;3.45;;;;;;;33.79;32.40;100582.09;5036941;28;20456;-76
2021/07/08 09:31:58;;;;;;;5.93;3.83;;;;;;;33.86;32.68;100584.34;5036710;28;20292;-76
2021/07/08 09:34:26;;;;;;;7.63;3.78;;;;;;;33.91;32.69;100586.34;5036729;28;20030;-76
2021/07/08 09:37:26;;;;;;;3.65;3.13;;;;;;;33.96;31.97;100575.91;5019315;28;20079;-76
2021/07/08 09:39:55;;;;;;;6.78;4.07;;;;;;;34.07;33.43;100579.38;5014685;28;20049;-76
2021/07/08 09:42:35;;;;;;;6.03;3.33;;;;;;;34.18;32.55;100583.38;5036754;28;20052;-76
2021/07/08 09:45:08;;;;;;;5.50;4.05;;;;;;;34.30;31.66;100584.72;5036671;28;20036;-76
2021/07/08 09:47:37;;;;;;;9.27;3.97;;;;;;;34.28;31.06;100575.75;5036392;28;20029;-76
2021/07/08 09:50:04;;;;;;;7.57;3.78;;;;;;;34.28;32.19;100585.28;5036597;28;20022;-76
2021/07/08 09:52:30;;;;;;;7.80;4.43;;;;;;;34.22;32.11;100575.06;5035606;28;20041;-76
2021/07/08 09:57:31;;;;;;;8.77;4.30;;;;;;;34.23;31.92;100573.72;5036311;28;20041;-76
2021/07/08 09:59:58;;;;;;;6.47;4.07;;;;;;;34.24;31.18;100575.28;5019050;28;20275;-77
2021/07/08 10:02:32;;;;;;;4.60;3.95;;;;;;;34.26;31.22;100575.53;5036050;28;20017;-77
2021/07/08 10:04:59;;;;;;;4.88;4.05;;;;;;;34.28;31.40;100569.91;5036272;28;20100;-78
2021/07/08 10:07:25;;;;;;;6.53;3.95;;;;;;;34.33;31.27;100569.00;5036155;28;20317;-77
2021/07/08 10:09:51;;;;;;;8.90;4.45;;;;;;;34.31;30.86;100568.78;5036348;28;20090;-78
2021/07/08 10:12:18;;;;;;;6.75;4.28;;;;;;;34.31;31.35;100560.81;5035932;28;20417;-77
2021/07/08 10:14:43;;;;;;;5.72;5.13;;;;;;;34.33;31.11;100566.09;5036127;28;20036;-78
2021/07/08 10:17:13;;;;;;;13.48;4.25;;;;;;;34.39;30.89;100566.75;5035990;28;20726;-77
2021/07/08 10:19:43;;;;;;;5.78;4.28;;;;;;;34.42;31.52;100567.75;5035926;28;20083;-78
2021/07/08 10:22:10;;;;;;;8.40;5.20;;;;;;;34.38;31.21;100563.06;5018589;28;20390;-78
2021/07/08 10:24:36;;;;;;;7.32;5.15;;;;;;;34.46;32.25;100557.28;5035953;28;20037;-78
2021/07/08 10:27:02;;;;;;;14.85;5.00;;;;;;;34.56;31.19;100561.31;5035955;28;20432;-76
2021/07/08 10:29:28;;;;;;;9.73;4.53;;;;;;;34.60;31.21;100558.81;5035707;28;20039;-78
2021/07/08 10:31:53;;;;;;;6.78;4.65;;;;;;;34.61;31.29;100556.69;5018111;28;20017;-78
2021/07/08 10:34:20;;;;;;;5.88;3.90;;;;;;;34.61;31.37;100542.88;5035718;28;20117;-77
2021/07/08 10:36:48;;;;;;;5.18;4.28;;;;;;;34.61;31.52;100547.94;5018324;28;20029;-77
2021/07/08 10:39:19;;;;;;;8.30;4.20;;;;;;;34.57;31.47;100547.50;5035689;28;20056;-78
2021/07/08 10:42:03;;;;;;;6.50;4.05;;;;;;;34.57;31.10;100538.75;5035504;28;20361;-77
2021/07/08 10:44:48;;;;;;;6.03;4.47;;;;;;;34.69;30.56;100534.97;5035473;28;20095;-78
2021/07/08 10:47:38;;;;;;;5.57;4.60;;;;;;;34.81;31.34;100537.63;5017923;28;20105;-77
2021/07/08 10:50:08;;;;;;;6.65;3.78;;;;;;;34.91;29.88;100535.78;5370358;23;20042;-77
2021/07/08 10:52:48;;;;;;;9.23;4.63;;;;;;;35.04;31.69;100544.44;5014931;28;20033;-76
2021/07/08 10:55:34;;;;;;;6.10;4.25;;;;;;;35.06;30.00;100535.88;5015412;28;20088;-77
2021/07/08 10:58:00;;;;;;;5.65;4.32;;;;;;;35.11;29.86;100546.66;5015983;28;20033;-77
2021/07/08 11:00:47;;;;;;;6.30;4.43;;;;;;;35.11;30.06;100537.91;5015241;28;20418;-76
2021/07/08 11:03:35;;;;;;;7.13;4.50;;;;;;;35.11;29.74;100537.13;5015344;28;20049;-77
2021/07/08 11:06:17;;;;;;;7.53;4.15;;;;;;;35.18;30.56;100533.47;5015628;28;20584;-77
2021/07/08 11:08:48;;;;;;;6.20;4.15;;;;;;;35.22;29.77;100531.75;5015858;28;20026;-78
2021/07/08 11:11:21;;;;;;;;;;;;;;;35.26;29.69;100535.06;5015963;28;20032;-76
2021/07/08 11:13:47;;;;;;;4.75;3.95;;;;;;;35.32;30.34;100535.69;5014443;28;19917;-78
2021/07/08 11:16:42;;;;;;;9.10;4.10;;;;;;;35.39;29.38;100533.44;5014604;28;20029;-77
2021/07/08 11:19:08;;;;;;;4.68;3.80;;;;;;;35.39;29.09;100527.59;4972395;28;20045;-77
2021/07/08 11:21:59;;;;;;;10.15;4.47;;;;;;;35.36;30.00;100529.53;5015533;28;20021;-77
2021/07/08 11:24:31;;;;;;;6.35;4.18;;;;;;;35.41;30.30;100525.66;5015464;28;20053;-75
2021/07/08 11:27:05;;;;;;;9.15;4.28;;;;;;;35.45;28.86;100525.28;5015542;28;20105;-77
2021/07/08 11:29:52;;;;;;;5.07;4.30;;;;;;;35.48;29.80;100518.28;5015073;28;20044;-77